sensor_id;sensor_type;location;lat;lon;timestamp;P1;durP1;ratioP1;P2;durP2;ratioP2
6689;SDS011;3382;51.576;8.076;2022-10-31T00:00:56;11.07;;;4.43;;
6689;SDS011;3382;51.576;8.076;2022-10-31T00:03:22;9.13;;;4.70;;
6689;SDS011;3382;51.576;8.076;2022-10-31T00:05:48;8.07;;;4.73;;
6689;SDS011;3382;51.576;8.076;2022-10-31T00:08:15;10.10;;;5.30;;
6689;SDS011;3382;51.576;8.076;2022-10-31T00:10:42;14.23;;;5.60;;
6689;SDS011;3382;51.576;8.076;2022-10-31T00:13:09;8.17;;;4.70;;
6689;SDS011;3382;51.576;8.076;2022-10-31T00:15:36;12.87;;;5.63;;
6689;SDS011;3382;51.576;8.076;2022-10-31T00:18:03;6.67;;;4.90;;
6689;SDS011;3382;51.576;8.076;2022-10-31T00:20:29;7.17;;;4.77;;
6689;SDS011;3382;51.576;8.076;2022-10-31T00:22:59;8.93;;;5.33;;
6689;SDS011;3382;51.576;8.076;2022-10-31T00:25:25;8.40;;;5.13;;
6689;SDS011;3382;51.576;8.076;2022-10-31T00:27:52;13.67;;;4.90;;
6689;SDS011;3382;51.576;8.076;2022-10-31T00:30:18;12.80;;;5.33;;
6689;SDS011;3382;51.576;8.076;2022-10-31T00:32:43;12.27;;;5.00;;
6689;SDS011;3382;51.576;8.076;2022-10-31T00:35:09;13.43;;;4.60;;
6689;SDS011;3382;51.576;8.076;2022-10-31T00:37:35;9.43;;;5.27;;
6689;SDS011;3382;51.576;8.076;2022-10-31T00:40:00;8.13;;;4.73;;
6689;SDS011;3382;51.576;8.076;2022-10-31T00:42:26;10.90;;;5.00;;
6689;SDS011;3382;51.576;8.076;2022-10-31T00:44:51;9.20;;;4.97;;
6689;SDS011;3382;51.576;8.076;2022-10-31T00:47:17;8.10;;;5.03;;
6689;SDS011;3382;51.576;8.076;2022-10-31T00:49:42;14.30;;;5.30;;
6689;SDS011;3382;51.576;8.076;2022-10-31T00:52:08;7.97;;;4.67;;
6689;SDS011;3382;51.576;8.076;2022-10-31T00:54:34;14.70;;;5.50;;
6689;SDS011;3382;51.576;8.076;2022-10-31T00:56:59;9.07;;;4.63;;
6689;SDS011;3382;51.576;8.076;2022-10-31T00:59:25;10.67;;;4.73;;
6689;SDS011;3382;51.576;8.076;2022-10-31T01:01:50;10.83;;;4.93;;
6689;SDS011;3382;51.576;8.076;2022-10-31T01:04:16;10.33;;;4.60;;
6689;SDS011;3382;51.576;8.076;2022-10-31T01:06:42;7.33;;;4.57;;
6689;SDS011;3382;51.576;8.076;2022-10-31T01:09:07;7.70;;;5.03;;
6689;SDS011;3382;51.576;8.076;2022-10-31T01:11:33;12.53;;;5.50;;
6689;SDS011;3382;51.576;8.076;2022-10-31T01:13:58;10.60;;;5.40;;
6689;SDS011;3382;51.576;8.076;2022-10-31T01:16:25;9.30;;;5.30;;
6689;SDS011;3382;51.576;8.076;2022-10-31T01:18:52;9.57;;;5.00;;
6689;SDS011;3382;51.576;8.076;2022-10-31T01:21:25;6.43;;;4.80;;
6689;SDS011;3382;51.576;8.076;2022-10-31T01:23:53;13.00;;;5.10;;
6689;SDS011;3382;51.576;8.076;2022-10-31T01:26:20;11.80;;;4.97;;
6689;SDS011;3382;51.576;8.076;2022-10-31T01:28:52;9.33;;;5.00;;
6689;SDS011;3382;51.576;8.076;2022-10-31T01:31:23;12.30;;;4.90;;
6689;SDS011;3382;51.576;8.076;2022-10-31T01:33:50;8.47;;;5.00;;
6689;SDS011;3382;51.576;8.076;2022-10-31T01:39:13;7.97;;;5.07;;
6689;SDS011;3382;51.576;8.076;2022-10-31T01:41:44;6.73;;;4.53;;
6689;SDS011;3382;51.576;8.076;2022-10-31T01:46:48;11.60;;;5.57;;
6689;SDS011;3382;51.576;8.076;2022-10-31T01:49:34;12.33;;;6.37;;
6689;SDS011;3382;51.576;8.076;2022-10-31T01:55:15;11.13;;;5.90;;
6689;SDS011;3382;51.576;8.076;2022-10-31T01:57:45;13.63;;;6.27;;
6689;SDS011;3382;51.576;8.076;2022-10-31T02:00:13;8.60;;;5.00;;
6689;SDS011;3382;51.576;8.076;2022-10-31T02:02:39;10.73;;;5.73;;
6689;SDS011;3382;51.576;8.076;2022-10-31T02:05:06;10.07;;;5.70;;
6689;SDS011;3382;51.576;8.076;2022-10-31T02:08:19;13.47;;;6.07;;
6689;SDS011;3382;51.576;8.076;2022-10-31T02:10:30;6.67;;;4.87;;
6689;SDS011;3382;51.576;8.076;2022-10-31T02:12:57;12.13;;;5.67;;
6689;SDS011;3382;51.576;8.076;2022-10-31T02:15:24;9.17;;;5.07;;
6689;SDS011;3382;51.576;8.076;2022-10-31T02:17:50;13.57;;;6.10;;
6689;SDS011;3382;51.576;8.076;2022-10-31T02:20:19;11.73;;;6.10;;
6689;SDS011;3382;51.576;8.076;2022-10-31T02:44:35;12.70;;;5.83;;
6689;SDS011;3382;51.576;8.076;2022-10-31T02:47:27;16.33;;;6.13;;
6689;SDS011;3382;51.576;8.076;2022-10-31T02:49:59;12.40;;;6.33;;
6689;SDS011;3382;51.576;8.076;2022-10-31T02:52:29;12.83;;;6.13;;
6689;SDS011;3382;51.576;8.076;2022-10-31T02:54:56;9.07;;;5.77;;
6689;SDS011;3382;51.576;8.076;2022-10-31T02:57:23;11.53;;;6.20;;
6689;SDS011;3382;51.576;8.076;2022-10-31T02:59:55;9.23;;;6.07;;
6689;SDS011;3382;51.576;8.076;2022-10-31T03:02:38;12.07;;;6.17;;
6689;SDS011;3382;51.576;8.076;2022-10-31T03:08:09;10.13;;;5.63;;
6689;SDS011;3382;51.576;8.076;2022-10-31T03:13:42;7.27;;;5.07;;
6689;SDS011;3382;51.576;8.076;2022-10-31T03:19:03;10.60;;;5.07;;
6689;SDS011;3382;51.576;8.076;2022-10-31T03:21:45;10.97;;;6.00;;
6689;SDS011;3382;51.576;8.076;2022-10-31T03:24:13;11.87;;;5.57;;
6689;SDS011;3382;51.576;8.076;2022-10-31T03:26:41;8.40;;;5.40;;
6689;SDS011;3382;51.576;8.076;2022-10-31T03:29:12;13.63;;;5.93;;
6689;SDS011;3382;51.576;8.076;2022-10-31T03:31:45;11.20;;;5.73;;
6689;SDS011;3382;51.576;8.076;2022-10-31T03:34:47;9.23;;;5.60;;
6689;SDS011;3382;51.576;8.076;2022-10-31T03:37:16;10.27;;;6.03;;
6689;SDS011;3382;51.576;8.076;2022-10-31T03:39:44;10.13;;;6.20;;
6689;SDS011;3382;51.576;8.076;2022-10-31T03:42:25;8.00;;;5.47;;
6689;SDS011;3382;51.576;8.076;2022-10-31T03:45:06;10.77;;;5.97;;
6689;SDS011;3382;51.576;8.076;2022-10-31T03:47:37;7.93;;;5.90;;
6689;SDS011;3382;51.576;8.076;2022-10-31T03:50:05;13.30;;;5.93;;
6689;SDS011;3382;51.576;8.076;2022-10-31T03:55:05;13.07;;;5.97;;
6689;SDS011;3382;51.576;8.076;2022-10-31T03:57:59;11.17;;;6.77;;
6689;SDS011;3382;51.576;8.076;2022-10-31T04:00:33;10.40;;;5.97;;
6689;SDS011;3382;51.576;8.076;2022-10-31T04:05:37;16.33;;;7.30;;
6689;SDS011;3382;51.576;8.076;2022-10-31T04:08:04;15.63;;;6.97;;
6689;SDS011;3382;51.576;8.076;2022-10-31T04:10:35;11.57;;;6.23;;
6689;SDS011;3382;51.576;8.076;2022-10-31T04:13:05;11.67;;;5.83;;
6689;SDS011;3382;51.576;8.076;2022-10-31T04:15:33;13.60;;;7.13;;
6689;SDS011;3382;51.576;8.076;2022-10-31T04:18:01;13.20;;;6.90;;
6689;SDS011;3382;51.576;8.076;2022-10-31T04:20:31;13.97;;;7.37;;
6689;SDS011;3382;51.576;8.076;2022-10-31T04:23:02;15.53;;;6.83;;
6689;SDS011;3382;51.576;8.076;2022-10-31T04:25:28;14.60;;;7.30;;
6689;SDS011;3382;51.576;8.076;2022-10-31T04:27:54;11.87;;;7.30;;
6689;SDS011;3382;51.576;8.076;2022-10-31T04:30:20;13.70;;;7.87;;
6689;SDS011;3382;51.576;8.076;2022-10-31T04:32:46;11.60;;;6.83;;
6689;SDS011;3382;51.576;8.076;2022-10-31T04:35:11;16.77;;;7.33;;
6689;SDS011;3382;51.576;8.076;2022-10-31T04:37:37;15.97;;;6.67;;
6689;SDS011;3382;51.576;8.076;2022-10-31T04:40:03;10.10;;;6.37;;
6689;SDS011;3382;51.576;8.076;2022-10-31T04:42:29;14.50;;;7.07;;
6689;SDS011;3382;51.576;8.076;2022-10-31T04:44:55;9.73;;;6.40;;
6689;SDS011;3382;51.576;8.076;2022-10-31T04:47:20;9.30;;;6.30;;
6689;SDS011;3382;51.576;8.076;2022-10-31T04:49:46;12.83;;;6.60;;
6689;SDS011;3382;51.576;8.076;2022-10-31T04:52:12;14.20;;;6.73;;
6689;SDS011;3382;51.576;8.076;2022-10-31T04:54:38;12.03;;;6.33;;
6689;SDS011;3382;51.576;8.076;2022-10-31T04:57:03;11.77;;;6.00;;
6689;SDS011;3382;51.576;8.076;2022-10-31T04:59:29;16.60;;;6.07;;
6689;SDS011;3382;51.576;8.076;2022-10-31T05:01:54;7.40;;;4.37;;
6689;SDS011;3382;51.576;8.076;2022-10-31T05:04:20;9.70;;;5.53;;
6689;SDS011;3382;51.576;8.076;2022-10-31T05:06:46;10.73;;;5.43;;
6689;SDS011;3382;51.576;8.076;2022-10-31T05:09:11;8.23;;;5.67;;
6689;SDS011;3382;51.576;8.076;2022-10-31T05:11:37;14.47;;;6.67;;
6689;SDS011;3382;51.576;8.076;2022-10-31T05:14:02;8.77;;;5.87;;
6689;SDS011;3382;51.576;8.076;2022-10-31T05:16:28;12.50;;;7.07;;
6689;SDS011;3382;51.576;8.076;2022-10-31T05:18:53;14.97;;;6.70;;
6689;SDS011;3382;51.576;8.076;2022-10-31T05:21:19;8.87;;;6.07;;
6689;SDS011;3382;51.576;8.076;2022-10-31T05:23:44;12.40;;;6.40;;
6689;SDS011;3382;51.576;8.076;2022-10-31T05:26:10;11.57;;;5.37;;
6689;SDS011;3382;51.576;8.076;2022-10-31T05:28:36;14.73;;;6.43;;
6689;SDS011;3382;51.576;8.076;2022-10-31T05:31:01;13.77;;;6.83;;
6689;SDS011;3382;51.576;8.076;2022-10-31T05:33:27;13.17;;;6.93;;
6689;SDS011;3382;51.576;8.076;2022-10-31T05:35:53;10.53;;;6.33;;
6689;SDS011;3382;51.576;8.076;2022-10-31T05:38:18;10.93;;;6.57;;
6689;SDS011;3382;51.576;8.076;2022-10-31T05:40:44;10.03;;;5.93;;
6689;SDS011;3382;51.576;8.076;2022-10-31T05:43:09;11.13;;;6.93;;
6689;SDS011;3382;51.576;8.076;2022-10-31T05:45:35;14.27;;;6.90;;
6689;SDS011;3382;51.576;8.076;2022-10-31T05:48:01;11.67;;;7.17;;
6689;SDS011;3382;51.576;8.076;2022-10-31T05:50:28;17.90;;;6.90;;
6689;SDS011;3382;51.576;8.076;2022-10-31T05:52:58;14.87;;;7.07;;
6689;SDS011;3382;51.576;8.076;2022-10-31T05:55:26;8.93;;;6.53;;
6689;SDS011;3382;51.576;8.076;2022-10-31T05:57:52;12.40;;;7.93;;
6689;SDS011;3382;51.576;8.076;2022-10-31T06:00:18;11.87;;;6.67;;
6689;SDS011;3382;51.576;8.076;2022-10-31T06:02:44;17.00;;;7.13;;
6689;SDS011;3382;51.576;8.076;2022-10-31T06:05:10;15.43;;;7.30;;
6689;SDS011;3382;51.576;8.076;2022-10-31T06:07:36;12.83;;;7.50;;
6689;SDS011;3382;51.576;8.076;2022-10-31T06:10:03;10.00;;;6.30;;
6689;SDS011;3382;51.576;8.076;2022-10-31T06:12:30;13.90;;;7.13;;
6689;SDS011;3382;51.576;8.076;2022-10-31T06:14:55;11.40;;;6.90;;
6689;SDS011;3382;51.576;8.076;2022-10-31T06:17:21;11.43;;;6.40;;
6689;SDS011;3382;51.576;8.076;2022-10-31T06:19:47;11.60;;;7.10;;
6689;SDS011;3382;51.576;8.076;2022-10-31T06:22:12;17.27;;;6.77;;
6689;SDS011;3382;51.576;8.076;2022-10-31T06:24:38;13.40;;;7.00;;
6689;SDS011;3382;51.576;8.076;2022-10-31T06:27:04;15.13;;;7.90;;
6689;SDS011;3382;51.576;8.076;2022-10-31T06:29:30;9.63;;;7.13;;
6689;SDS011;3382;51.576;8.076;2022-10-31T06:31:56;15.63;;;6.47;;
6689;SDS011;3382;51.576;8.076;2022-10-31T06:34:21;16.93;;;7.03;;
6689;SDS011;3382;51.576;8.076;2022-10-31T06:36:47;11.17;;;6.77;;
6689;SDS011;3382;51.576;8.076;2022-10-31T06:39:14;15.87;;;7.77;;
6689;SDS011;3382;51.576;8.076;2022-10-31T06:41:40;11.57;;;6.97;;
6689;SDS011;3382;51.576;8.076;2022-10-31T06:44:06;10.60;;;7.03;;
6689;SDS011;3382;51.576;8.076;2022-10-31T06:46:32;13.03;;;7.67;;
6689;SDS011;3382;51.576;8.076;2022-10-31T06:48:58;14.13;;;6.83;;
6689;SDS011;3382;51.576;8.076;2022-10-31T06:51:24;11.60;;;7.20;;
6689;SDS011;3382;51.576;8.076;2022-10-31T06:53:49;15.13;;;7.33;;
6689;SDS011;3382;51.576;8.076;2022-10-31T06:56:15;16.73;;;7.20;;
6689;SDS011;3382;51.576;8.076;2022-10-31T06:58:41;10.80;;;6.90;;
6689;SDS011;3382;51.576;8.076;2022-10-31T07:01:06;13.37;;;6.17;;
6689;SDS011;3382;51.576;8.076;2022-10-31T07:03:32;16.13;;;7.10;;
6689;SDS011;3382;51.576;8.076;2022-10-31T07:05:57;11.17;;;6.27;;
6689;SDS011;3382;51.576;8.076;2022-10-31T07:08:23;9.87;;;6.60;;
6689;SDS011;3382;51.576;8.076;2022-10-31T07:10:55;17.07;;;7.10;;
6689;SDS011;3382;51.576;8.076;2022-10-31T07:13:22;13.33;;;7.73;;
6689;SDS011;3382;51.576;8.076;2022-10-31T07:15:52;26.37;;;8.57;;
6689;SDS011;3382;51.576;8.076;2022-10-31T07:18:18;11.17;;;6.87;;
6689;SDS011;3382;51.576;8.076;2022-10-31T07:20:44;12.73;;;7.73;;
6689;SDS011;3382;51.576;8.076;2022-10-31T07:23:10;20.63;;;9.07;;
6689;SDS011;3382;51.576;8.076;2022-10-31T07:25:36;15.67;;;8.97;;
6689;SDS011;3382;51.576;8.076;2022-10-31T07:28:02;18.03;;;7.83;;
6689;SDS011;3382;51.576;8.076;2022-10-31T07:30:28;21.70;;;10.77;;
6689;SDS011;3382;51.576;8.076;2022-10-31T07:32:54;17.53;;;8.87;;
6689;SDS011;3382;51.576;8.076;2022-10-31T07:35:24;17.53;;;7.97;;
6689;SDS011;3382;51.576;8.076;2022-10-31T07:37:51;19.50;;;8.57;;
6689;SDS011;3382;51.576;8.076;2022-10-31T07:40:18;16.93;;;8.87;;
6689;SDS011;3382;51.576;8.076;2022-10-31T07:42:46;18.37;;;10.27;;
6689;SDS011;3382;51.576;8.076;2022-10-31T07:45:15;20.80;;;9.33;;
6689;SDS011;3382;51.576;8.076;2022-10-31T07:47:46;15.03;;;9.13;;
6689;SDS011;3382;51.576;8.076;2022-10-31T07:50:17;14.73;;;9.03;;
6689;SDS011;3382;51.576;8.076;2022-10-31T07:52:44;21.17;;;9.97;;
6689;SDS011;3382;51.576;8.076;2022-10-31T07:55:10;18.50;;;10.47;;
6689;SDS011;3382;51.576;8.076;2022-10-31T07:57:36;18.20;;;9.87;;
6689;SDS011;3382;51.576;8.076;2022-10-31T08:00:03;18.50;;;10.97;;
6689;SDS011;3382;51.576;8.076;2022-10-31T08:02:30;18.03;;;9.93;;
6689;SDS011;3382;51.576;8.076;2022-10-31T08:04:55;25.30;;;11.90;;
6689;SDS011;3382;51.576;8.076;2022-10-31T08:07:21;22.43;;;11.77;;
6689;SDS011;3382;51.576;8.076;2022-10-31T08:09:47;23.73;;;11.77;;
6689;SDS011;3382;51.576;8.076;2022-10-31T08:12:12;20.70;;;11.17;;
6689;SDS011;3382;51.576;8.076;2022-10-31T08:14:38;17.97;;;9.77;;
6689;SDS011;3382;51.576;8.076;2022-10-31T08:17:03;22.67;;;12.30;;
6689;SDS011;3382;51.576;8.076;2022-10-31T08:19:29;24.97;;;12.30;;
6689;SDS011;3382;51.576;8.076;2022-10-31T08:21:54;23.90;;;13.13;;
6689;SDS011;3382;51.576;8.076;2022-10-31T08:24:21;22.60;;;12.60;;
6689;SDS011;3382;51.576;8.076;2022-10-31T08:26:47;31.07;;;12.90;;
6689;SDS011;3382;51.576;8.076;2022-10-31T08:29:12;32.43;;;13.30;;
6689;SDS011;3382;51.576;8.076;2022-10-31T08:31:39;25.00;;;13.07;;
6689;SDS011;3382;51.576;8.076;2022-10-31T08:34:05;27.37;;;13.03;;
6689;SDS011;3382;51.576;8.076;2022-10-31T08:36:31;25.63;;;13.10;;
6689;SDS011;3382;51.576;8.076;2022-10-31T08:38:56;30.93;;;13.33;;
6689;SDS011;3382;51.576;8.076;2022-10-31T08:41:22;26.40;;;13.10;;
6689;SDS011;3382;51.576;8.076;2022-10-31T08:43:48;29.07;;;14.60;;
6689;SDS011;3382;51.576;8.076;2022-10-31T08:46:13;30.60;;;14.83;;
6689;SDS011;3382;51.576;8.076;2022-10-31T08:48:39;28.77;;;13.80;;
6689;SDS011;3382;51.576;8.076;2022-10-31T08:51:05;23.37;;;10.10;;
6689;SDS011;3382;51.576;8.076;2022-10-31T08:53:30;23.20;;;12.90;;
6689;SDS011;3382;51.576;8.076;2022-10-31T08:55:56;22.83;;;12.07;;
6689;SDS011;3382;51.576;8.076;2022-10-31T08:58:22;20.70;;;13.50;;
6689;SDS011;3382;51.576;8.076;2022-10-31T09:00:52;31.90;;;15.33;;
6689;SDS011;3382;51.576;8.076;2022-10-31T09:03:22;25.27;;;14.63;;
6689;SDS011;3382;51.576;8.076;2022-10-31T09:05:50;27.83;;;14.33;;
6689;SDS011;3382;51.576;8.076;2022-10-31T09:08:20;31.13;;;14.87;;
6689;SDS011;3382;51.576;8.076;2022-10-31T09:10:45;27.13;;;14.47;;
6689;SDS011;3382;51.576;8.076;2022-10-31T09:13:12;27.83;;;15.00;;
6689;SDS011;3382;51.576;8.076;2022-10-31T09:15:40;26.70;;;15.07;;
6689;SDS011;3382;51.576;8.076;2022-10-31T09:18:07;28.40;;;14.40;;
6689;SDS011;3382;51.576;8.076;2022-10-31T09:20:34;27.57;;;13.77;;
6689;SDS011;3382;51.576;8.076;2022-10-31T09:23:02;25.13;;;14.57;;
6689;SDS011;3382;51.576;8.076;2022-10-31T09:25:33;24.70;;;14.90;;
6689;SDS011;3382;51.576;8.076;2022-10-31T09:28:01;30.70;;;15.20;;
6689;SDS011;3382;51.576;8.076;2022-10-31T09:30:28;24.63;;;14.67;;
6689;SDS011;3382;51.576;8.076;2022-10-31T09:32:55;31.17;;;14.67;;
6689;SDS011;3382;51.576;8.076;2022-10-31T09:35:22;27.90;;;15.00;;
6689;SDS011;3382;51.576;8.076;2022-10-31T09:37:53;24.60;;;15.00;;
6689;SDS011;3382;51.576;8.076;2022-10-31T09:40:24;24.47;;;14.70;;
6689;SDS011;3382;51.576;8.076;2022-10-31T09:43:07;25.80;;;15.00;;
6689;SDS011;3382;51.576;8.076;2022-10-31T09:50:59;29.13;;;15.67;;
6689;SDS011;3382;51.576;8.076;2022-10-31T09:53:34;34.03;;;17.13;;
6689;SDS011;3382;51.576;8.076;2022-10-31T09:56:20;35.40;;;17.77;;
6689;SDS011;3382;51.576;8.076;2022-10-31T09:58:50;38.73;;;18.40;;
6689;SDS011;3382;51.576;8.076;2022-10-31T10:04:16;37.97;;;17.07;;
6689;SDS011;3382;51.576;8.076;2022-10-31T10:07:00;33.23;;;18.40;;
6689;SDS011;3382;51.576;8.076;2022-10-31T10:09:31;35.73;;;17.50;;
6689;SDS011;3382;51.576;8.076;2022-10-31T10:25:23;25.97;;;13.37;;
6689;SDS011;3382;51.576;8.076;2022-10-31T10:30:36;31.33;;;17.63;;
6689;SDS011;3382;51.576;8.076;2022-10-31T10:33:13;35.00;;;18.27;;
6689;SDS011;3382;51.576;8.076;2022-10-31T10:35:48;30.80;;;15.60;;
6689;SDS011;3382;51.576;8.076;2022-10-31T10:41:22;35.57;;;18.10;;
6689;SDS011;3382;51.576;8.076;2022-10-31T10:43:50;35.83;;;17.20;;
6689;SDS011;3382;51.576;8.076;2022-10-31T10:49:32;34.60;;;16.97;;
6689;SDS011;3382;51.576;8.076;2022-10-31T11:00:22;29.73;;;14.93;;
6689;SDS011;3382;51.576;8.076;2022-10-31T11:02:50;29.30;;;15.90;;
6689;SDS011;3382;51.576;8.076;2022-10-31T11:05:23;29.20;;;15.67;;
6689;SDS011;3382;51.576;8.076;2022-10-31T11:07:49;29.47;;;16.50;;
6689;SDS011;3382;51.576;8.076;2022-10-31T11:10:16;28.30;;;16.63;;
6689;SDS011;3382;51.576;8.076;2022-10-31T11:12:43;29.03;;;16.57;;
6689;SDS011;3382;51.576;8.076;2022-10-31T11:15:21;31.30;;;15.23;;
6689;SDS011;3382;51.576;8.076;2022-10-31T11:17:50;28.23;;;15.87;;
6689;SDS011;3382;51.576;8.076;2022-10-31T11:23:00;32.50;;;15.80;;
6689;SDS011;3382;51.576;8.076;2022-10-31T11:25:52;29.47;;;15.33;;
6689;SDS011;3382;51.576;8.076;2022-10-31T11:28:19;25.20;;;15.40;;
6689;SDS011;3382;51.576;8.076;2022-10-31T11:30:48;32.97;;;16.53;;
6689;SDS011;3382;51.576;8.076;2022-10-31T11:33:21;25.47;;;14.03;;
6689;SDS011;3382;51.576;8.076;2022-10-31T11:35:51;28.50;;;15.03;;
6689;SDS011;3382;51.576;8.076;2022-10-31T11:38:19;28.63;;;15.90;;
6689;SDS011;3382;51.576;8.076;2022-10-31T11:40:57;28.20;;;16.60;;
6689;SDS011;3382;51.576;8.076;2022-10-31T11:43:27;26.23;;;14.37;;
6689;SDS011;3382;51.576;8.076;2022-10-31T11:45:53;26.77;;;15.73;;
6689;SDS011;3382;51.576;8.076;2022-10-31T11:48:20;34.03;;;16.90;;
6689;SDS011;3382;51.576;8.076;2022-10-31T11:50:49;26.73;;;15.93;;
6689;SDS011;3382;51.576;8.076;2022-10-31T11:53:25;23.07;;;14.30;;
6689;SDS011;3382;51.576;8.076;2022-10-31T11:56:05;26.83;;;15.37;;
6689;SDS011;3382;51.576;8.076;2022-10-31T11:58:39;29.60;;;14.93;;
6689;SDS011;3382;51.576;8.076;2022-10-31T12:01:05;27.00;;;15.53;;
6689;SDS011;3382;51.576;8.076;2022-10-31T12:08:37;28.57;;;15.63;;
6689;SDS011;3382;51.576;8.076;2022-10-31T12:48:01;21.93;;;13.20;;
6689;SDS011;3382;51.576;8.076;2022-10-31T12:50:31;11.83;;;8.50;;
6689;SDS011;3382;51.576;8.076;2022-10-31T12:58:42;28.87;;;14.27;;
6689;SDS011;3382;51.576;8.076;2022-10-31T13:04:01;20.77;;;13.57;;
6689;SDS011;3382;51.576;8.076;2022-10-31T13:06:30;24.60;;;15.40;;
6689;SDS011;3382;51.576;8.076;2022-10-31T13:09:02;26.07;;;14.97;;
6689;SDS011;3382;51.576;8.076;2022-10-31T13:11:34;30.23;;;15.17;;
6689;SDS011;3382;51.576;8.076;2022-10-31T13:17:05;22.27;;;14.53;;
6689;SDS011;3382;51.576;8.076;2022-10-31T13:19:34;26.80;;;15.07;;
6689;SDS011;3382;51.576;8.076;2022-10-31T13:22:17;24.20;;;14.50;;
6689;SDS011;3382;51.576;8.076;2022-10-31T13:25:03;26.80;;;14.10;;
6689;SDS011;3382;51.576;8.076;2022-10-31T13:27:56;21.60;;;12.93;;
6689;SDS011;3382;51.576;8.076;2022-10-31T13:30:29;30.13;;;14.43;;
6689;SDS011;3382;51.576;8.076;2022-10-31T13:38:16;25.07;;;13.80;;
6689;SDS011;3382;51.576;8.076;2022-10-31T13:40:57;26.23;;;14.40;;
6689;SDS011;3382;51.576;8.076;2022-10-31T13:43:43;26.37;;;15.10;;
6689;SDS011;3382;51.576;8.076;2022-10-31T13:46:38;25.13;;;14.00;;
6689;SDS011;3382;51.576;8.076;2022-10-31T13:49:21;29.97;;;15.17;;
6689;SDS011;3382;51.576;8.076;2022-10-31T13:51:48;26.77;;;14.17;;
6689;SDS011;3382;51.576;8.076;2022-10-31T13:54:21;23.30;;;15.40;;
6689;SDS011;3382;51.576;8.076;2022-10-31T13:56:51;29.27;;;15.80;;
6689;SDS011;3382;51.576;8.076;2022-10-31T13:59:27;23.67;;;15.13;;
6689;SDS011;3382;51.576;8.076;2022-10-31T14:01:57;27.07;;;14.80;;
6689;SDS011;3382;51.576;8.076;2022-10-31T14:04:36;25.33;;;14.00;;
6689;SDS011;3382;51.576;8.076;2022-10-31T14:07:15;23.00;;;13.47;;
6689;SDS011;3382;51.576;8.076;2022-10-31T14:17:38;24.27;;;14.80;;
6689;SDS011;3382;51.576;8.076;2022-10-31T14:22:39;21.00;;;14.30;;
6689;SDS011;3382;51.576;8.076;2022-10-31T14:27:51;31.80;;;15.73;;
6689;SDS011;3382;51.576;8.076;2022-10-31T14:30:19;28.53;;;15.03;;
6689;SDS011;3382;51.576;8.076;2022-10-31T14:33:09;21.73;;;14.30;;
6689;SDS011;3382;51.576;8.076;2022-10-31T14:35:46;24.67;;;14.70;;
6689;SDS011;3382;51.576;8.076;2022-10-31T14:38:34;18.80;;;13.33;;
6689;SDS011;3382;51.576;8.076;2022-10-31T14:41:36;20.80;;;13.37;;
6689;SDS011;3382;51.576;8.076;2022-10-31T14:52:00;21.03;;;12.27;;
6689;SDS011;3382;51.576;8.076;2022-10-31T14:54:33;20.97;;;13.40;;
6689;SDS011;3382;51.576;8.076;2022-10-31T14:57:05;19.63;;;13.27;;
6689;SDS011;3382;51.576;8.076;2022-10-31T14:59:38;22.07;;;12.90;;
6689;SDS011;3382;51.576;8.076;2022-10-31T15:04:49;21.27;;;11.87;;
6689;SDS011;3382;51.576;8.076;2022-10-31T15:07:24;23.60;;;11.60;;
6689;SDS011;3382;51.576;8.076;2022-10-31T15:09:58;22.93;;;12.20;;
6689;SDS011;3382;51.576;8.076;2022-10-31T15:12:33;24.27;;;11.27;;
6689;SDS011;3382;51.576;8.076;2022-10-31T15:15:12;18.07;;;11.30;;
6689;SDS011;3382;51.576;8.076;2022-10-31T15:17:41;18.10;;;10.90;;
6689;SDS011;3382;51.576;8.076;2022-10-31T15:20:13;16.40;;;10.53;;
6689;SDS011;3382;51.576;8.076;2022-10-31T15:22:48;23.37;;;10.20;;
6689;SDS011;3382;51.576;8.076;2022-10-31T15:25:18;19.90;;;10.50;;
6689;SDS011;3382;51.576;8.076;2022-10-31T15:27:46;16.30;;;10.17;;
6689;SDS011;3382;51.576;8.076;2022-10-31T15:30:20;19.70;;;11.03;;
6689;SDS011;3382;51.576;8.076;2022-10-31T15:32:47;23.47;;;11.43;;
6689;SDS011;3382;51.576;8.076;2022-10-31T15:37:53;21.20;;;10.33;;
6689;SDS011;3382;51.576;8.076;2022-10-31T15:40:20;17.03;;;10.23;;
6689;SDS011;3382;51.576;8.076;2022-10-31T15:42:51;14.70;;;9.63;;
6689;SDS011;3382;51.576;8.076;2022-10-31T15:45:25;17.33;;;9.53;;
6689;SDS011;3382;51.576;8.076;2022-10-31T15:47:56;15.43;;;8.30;;
6689;SDS011;3382;51.576;8.076;2022-10-31T15:50:40;18.73;;;9.47;;
6689;SDS011;3382;51.576;8.076;2022-10-31T15:53:26;15.20;;;10.47;;
6689;SDS011;3382;51.576;8.076;2022-10-31T15:55:57;17.80;;;9.27;;
6689;SDS011;3382;51.576;8.076;2022-10-31T15:58:25;24.80;;;9.00;;
6689;SDS011;3382;51.576;8.076;2022-10-31T16:00:57;20.73;;;9.30;;
6689;SDS011;3382;51.576;8.076;2022-10-31T16:03:28;17.77;;;9.40;;
6689;SDS011;3382;51.576;8.076;2022-10-31T16:06:02;16.03;;;8.40;;
6689;SDS011;3382;51.576;8.076;2022-10-31T16:13:36;15.10;;;9.50;;
6689;SDS011;3382;51.576;8.076;2022-10-31T16:16:12;14.90;;;9.20;;
6689;SDS011;3382;51.576;8.076;2022-10-31T16:18:40;15.63;;;9.53;;
6689;SDS011;3382;51.576;8.076;2022-10-31T16:21:06;16.77;;;8.97;;
6689;SDS011;3382;51.576;8.076;2022-10-31T16:23:33;16.83;;;9.10;;
6689;SDS011;3382;51.576;8.076;2022-10-31T16:25:59;16.67;;;9.63;;
6689;SDS011;3382;51.576;8.076;2022-10-31T16:28:36;18.33;;;10.03;;
6689;SDS011;3382;51.576;8.076;2022-10-31T16:31:11;14.30;;;8.87;;
6689;SDS011;3382;51.576;8.076;2022-10-31T16:33:38;20.97;;;9.53;;
6689;SDS011;3382;51.576;8.076;2022-10-31T16:38:55;20.50;;;11.30;;
6689;SDS011;3382;51.576;8.076;2022-10-31T16:41:23;22.43;;;9.77;;
6689;SDS011;3382;51.576;8.076;2022-10-31T16:43:49;19.20;;;10.67;;
6689;SDS011;3382;51.576;8.076;2022-10-31T16:46:16;19.83;;;10.60;;
6689;SDS011;3382;51.576;8.076;2022-10-31T16:48:47;20.30;;;10.80;;
6689;SDS011;3382;51.576;8.076;2022-10-31T16:51:12;18.13;;;9.83;;
6689;SDS011;3382;51.576;8.076;2022-10-31T16:53:38;18.67;;;9.87;;
6689;SDS011;3382;51.576;8.076;2022-10-31T16:56:04;19.57;;;10.00;;
6689;SDS011;3382;51.576;8.076;2022-10-31T16:58:34;16.80;;;9.23;;
6689;SDS011;3382;51.576;8.076;2022-10-31T17:01:00;15.90;;;8.83;;
6689;SDS011;3382;51.576;8.076;2022-10-31T17:03:28;23.33;;;10.37;;
6689;SDS011;3382;51.576;8.076;2022-10-31T17:05:55;18.77;;;10.20;;
6689;SDS011;3382;51.576;8.076;2022-10-31T17:08:20;16.53;;;9.90;;
6689;SDS011;3382;51.576;8.076;2022-10-31T17:10:46;15.47;;;9.03;;
6689;SDS011;3382;51.576;8.076;2022-10-31T17:13:22;16.13;;;8.77;;
6689;SDS011;3382;51.576;8.076;2022-10-31T17:15:52;20.50;;;8.90;;
6689;SDS011;3382;51.576;8.076;2022-10-31T17:18:19;15.63;;;8.57;;
6689;SDS011;3382;51.576;8.076;2022-10-31T17:20:45;19.57;;;7.93;;
6689;SDS011;3382;51.576;8.076;2022-10-31T17:23:12;15.70;;;7.33;;
6689;SDS011;3382;51.576;8.076;2022-10-31T17:25:39;14.67;;;7.57;;
6689;SDS011;3382;51.576;8.076;2022-10-31T17:28:05;16.30;;;7.60;;
6689;SDS011;3382;51.576;8.076;2022-10-31T17:30:31;22.13;;;7.90;;
6689;SDS011;3382;51.576;8.076;2022-10-31T17:32:58;11.53;;;7.50;;
6689;SDS011;3382;51.576;8.076;2022-10-31T17:35:24;15.30;;;8.23;;
6689;SDS011;3382;51.576;8.076;2022-10-31T17:37:50;27.83;;;7.67;;
6689;SDS011;3382;51.576;8.076;2022-10-31T17:40:16;25.20;;;7.47;;
6689;SDS011;3382;51.576;8.076;2022-10-31T17:42:51;13.20;;;5.90;;
6689;SDS011;3382;51.576;8.076;2022-10-31T17:45:19;11.33;;;5.73;;
6689;SDS011;3382;51.576;8.076;2022-10-31T17:47:46;19.10;;;7.50;;
6689;SDS011;3382;51.576;8.076;2022-10-31T17:50:13;17.17;;;6.40;;
6689;SDS011;3382;51.576;8.076;2022-10-31T17:52:43;12.47;;;6.33;;
6689;SDS011;3382;51.576;8.076;2022-10-31T17:55:09;13.87;;;6.43;;
6689;SDS011;3382;51.576;8.076;2022-10-31T17:57:36;10.63;;;6.43;;
6689;SDS011;3382;51.576;8.076;2022-10-31T18:00:02;14.60;;;6.10;;
6689;SDS011;3382;51.576;8.076;2022-10-31T18:02:30;14.53;;;6.30;;
6689;SDS011;3382;51.576;8.076;2022-10-31T18:04:55;15.37;;;6.27;;
6689;SDS011;3382;51.576;8.076;2022-10-31T18:07:21;12.73;;;5.97;;
6689;SDS011;3382;51.576;8.076;2022-10-31T18:09:47;17.53;;;6.10;;